createdAt,value
2019-04-05T16:28:27.470Z,431.10
2019-04-05T16:29:27.440Z,457.30
2019-04-05T16:30:28.614Z,564.80
2019-04-05T16:31:27.426Z,478.80
2019-04-05T16:32:27.512Z,633.90
2019-04-05T16:33:27.395Z,527.20
2019-04-05T16:34:27.580Z,512.40
2019-04-05T16:35:27.401Z,470.90
2019-04-05T16:36:30.912Z,262.90
2019-04-05T16:37:27.354Z,235.20
2019-04-05T16:38:27.525Z,222.80
2019-04-05T16:39:27.332Z,209.40
2019-04-05T16:40:27.364Z,231.50
2019-04-05T16:41:27.304Z,217.10
2019-04-05T16:42:28.388Z,227.10
2019-04-05T16:43:27.292Z,217.70
2019-04-05T16:44:27.340Z,217.30
2019-04-05T16:45:27.280Z,220.60
2019-04-05T16:46:27.356Z,203.70
2019-04-05T16:47:27.270Z,189.40
2019-04-05T16:48:27.268Z,196.10
2019-04-05T16:49:27.212Z,179.60
2019-04-05T16:50:27.318Z,183.50
2019-04-05T16:51:27.199Z,179.70
2019-04-05T16:52:27.242Z,162.70
2019-04-05T16:53:27.167Z,164.10
2019-04-05T16:54:27.224Z,162.90
2019-04-05T16:55:27.144Z,158.10
2019-04-05T16:56:27.263Z,147.90
2019-04-05T16:57:27.122Z,146.20
2019-04-05T16:58:27.132Z,144.10
2019-04-05T16:59:27.111Z,141.40
2019-04-05T17:00:27.154Z,136.40
2019-04-05T17:01:27.682Z,130.20
2019-04-05T17:02:27.169Z,133.80
2019-04-05T17:03:27.055Z,125.10
2019-04-05T17:04:27.102Z,121.80
2019-04-05T17:05:27.038Z,121.80
2019-04-05T17:06:27.120Z,124.20
2019-04-05T17:07:27.018Z,116.00
2019-04-05T17:08:27.107Z,116.40
2019-04-05T17:09:26.990Z,113.40
2019-04-05T17:10:27.018Z,108.70
2019-04-05T17:11:26.987Z,107.50
2019-04-05T17:12:27.034Z,105.50
2019-04-05T17:13:26.941Z,101.00
2019-04-05T17:14:28.992Z,98.50
2019-04-05T17:15:26.918Z,96.60
2019-04-05T17:16:26.997Z,93.00
2019-04-05T17:17:26.890Z,96.30
2019-04-05T17:18:27.996Z,94.10
2019-04-05T17:19:26.873Z,88.20
2019-04-05T17:20:26.886Z,84.20
2019-04-05T17:21:26.881Z,81.70
2019-04-05T17:22:27.932Z,84.60
2019-04-05T17:23:26.824Z,76.40
2019-04-05T17:24:26.914Z,78.20
2019-04-05T17:25:26.822Z,73.80
2019-04-05T17:26:26.860Z,73.70
2019-04-05T17:27:26.778Z,68.50
2019-04-05T17:28:26.840Z,72.60
2019-04-05T17:29:26.770Z,69.30
2019-04-05T17:30:26.850Z,72.20
2019-04-05T17:31:26.778Z,68.50
2019-04-05T17:32:26.768Z,66.30
2019-04-05T17:33:26.711Z,67.10
2019-04-05T17:34:26.782Z,62.30
2019-04-05T17:35:26.691Z,64.80
2019-04-05T17:36:26.824Z,62.50
2019-04-05T17:37:26.902Z,63.70
2019-04-05T17:38:26.714Z,59.30
2019-04-05T17:39:26.651Z,57.80
2019-04-05T17:40:26.719Z,60.50
2019-04-05T17:41:26.624Z,59.00
2019-04-05T17:42:26.677Z,56.10
2019-04-05T17:43:26.603Z,56.50
2019-04-05T17:44:26.662Z,59.00
2019-04-05T17:45:26.580Z,52.60
2019-04-05T17:46:26.696Z,50.50
2019-04-05T17:47:26.572Z,54.30
2019-04-05T17:48:26.597Z,51.20
2019-04-05T17:49:26.532Z,50.40
2019-04-05T17:50:26.583Z,50.00
2019-04-05T17:51:26.542Z,48.40
2019-04-05T17:52:26.598Z,52.70
2019-04-05T17:53:26.498Z,47.80
2019-04-05T17:54:26.519Z,47.90
2019-04-05T17:55:26.477Z,47.50
2019-04-05T17:56:26.569Z,48.30
2019-04-05T17:57:26.459Z,49.50
2019-04-05T17:58:26.549Z,46.50
2019-04-05T17:59:26.426Z,44.70
2019-04-05T18:00:26.448Z,47.50
2019-04-05T18:01:26.421Z,45.20
2019-04-05T18:02:27.575Z,43.40
2019-04-05T18:03:26.375Z,48.10
2019-04-05T18:04:26.376Z,43.90
2019-04-05T18:05:26.350Z,43.90
2019-04-05T18:06:26.393Z,42.40
2019-04-05T18:07:26.348Z,43.30
2019-04-05T18:08:26.410Z,40.60
2019-04-05T18:09:27.460Z,41.80
2019-04-05T18:10:26.314Z,40.30
2019-04-05T18:11:26.300Z,44.10
2019-04-05T18:12:26.371Z,41.80
2019-04-05T18:13:26.256Z,44.00
2019-04-05T18:14:26.343Z,37.20
2019-04-05T18:15:26.236Z,41.70
2019-04-05T18:16:26.265Z,38.40
2019-04-05T18:17:26.244Z,47.00
2019-04-05T18:18:27.302Z,37.30
2019-04-05T18:19:26.207Z,36.00
2019-04-05T18:20:26.291Z,38.00
2019-04-05T18:21:26.173Z,41.00
2019-04-05T18:22:26.240Z,36.30
2019-04-05T18:23:26.153Z,38.50
2019-04-05T18:24:26.212Z,36.90
2019-04-05T18:25:26.128Z,38.50
2019-04-05T18:26:26.229Z,36.70
2019-04-05T18:27:26.116Z,41.10
2019-04-05T18:28:27.163Z,43.20
2019-04-05T18:29:26.086Z,39.70
2019-04-05T18:30:26.156Z,38.90
2019-04-05T18:31:26.068Z,38.10
2019-04-05T18:32:26.099Z,38.60
2019-04-05T18:33:26.035Z,37.40
2019-04-05T18:34:26.084Z,35.40
2019-04-05T18:35:26.006Z,37.80
2019-04-05T18:36:26.093Z,38.80
2019-04-05T18:37:26.019Z,35.40
2019-04-05T18:38:26.043Z,33.90
2019-04-05T18:39:25.961Z,34.80
2019-04-05T18:40:26.016Z,34.60
2019-04-05T18:41:25.948Z,37.00
2019-04-05T18:42:26.177Z,36.50
2019-04-05T18:43:25.918Z,37.10
2019-04-05T18:44:25.944Z,36.50
2019-04-05T18:45:25.895Z,34.70
2019-04-05T18:46:25.960Z,31.20
2019-04-05T18:47:25.898Z,33.60
2019-04-05T18:48:25.974Z,33.10
2019-04-05T18:49:25.854Z,33.70
2019-04-05T18:50:25.884Z,34.40
2019-04-05T18:51:25.827Z,34.70
2019-04-05T18:52:25.930Z,32.50
2019-04-05T18:53:36.995Z,36.50
2019-04-05T18:54:26.793Z,34.20
2019-04-05T18:55:25.816Z,33.10
2019-04-05T18:56:25.774Z,33.90
2019-04-05T18:57:25.868Z,32.30
2019-04-05T18:58:25.755Z,33.10
2019-04-05T18:59:25.848Z,36.10
2019-04-05T19:00:25.732Z,32.40
2019-04-05T19:01:25.755Z,29.20
2019-04-05T19:02:25.731Z,35.60
2019-04-05T19:03:25.775Z,33.30
2019-04-05T19:04:25.695Z,33.00
2019-04-05T19:05:25.786Z,35.00
2019-04-05T19:06:25.671Z,33.80
2019-04-05T19:07:25.740Z,35.50
2019-04-05T19:08:38.490Z,32.30
2019-04-05T19:09:26.656Z,31.20
2019-04-05T19:10:36.441Z,34.40
2019-04-05T19:11:26.602Z,34.00
2019-04-05T19:12:25.631Z,32.70
2019-04-05T19:13:25.618Z,30.20
2019-04-05T19:14:25.652Z,31.50
2019-04-05T19:15:25.575Z,32.40
2019-04-05T19:16:25.684Z,30.30
2019-04-05T19:17:25.548Z,33.80
2019-04-05T19:18:25.656Z,29.20
2019-04-05T19:19:25.512Z,30.60
2019-04-05T19:20:25.599Z,35.00
2019-04-05T19:21:25.495Z,33.10
2019-04-05T19:22:25.513Z,32.30
2019-04-05T19:23:25.498Z,31.00
2019-04-05T19:24:25.557Z,32.20
2019-04-05T19:25:25.448Z,33.70
2019-04-05T19:26:25.526Z,31.90
2019-04-05T19:27:25.443Z,34.00
2019-04-05T19:28:25.443Z,31.60
2019-04-05T19:29:25.435Z,33.60
2019-04-05T19:49:25.227Z,48.40
2019-04-05T19:50:25.292Z,46.00
2019-04-05T19:51:25.164Z,46.30
2019-04-05T19:52:27.273Z,46.60
2019-04-05T19:53:25.205Z,45.60
2019-04-05T19:54:26.491Z,45.90
2019-04-05T19:55:25.115Z,44.50
2019-04-05T19:56:25.127Z,45.40
2019-04-05T19:57:25.090Z,43.60
2019-04-05T19:58:25.176Z,37.60
2019-04-05T19:59:25.078Z,40.60
2019-04-05T20:00:25.155Z,44.20
2019-04-05T20:01:25.046Z,42.00
2019-04-05T20:02:25.054Z,42.70
2019-04-05T20:03:25.057Z,38.60
2019-04-05T20:04:25.024Z,37.60
2019-04-05T20:05:24.997Z,38.60
2019-04-05T20:06:25.102Z,36.40
2019-04-05T20:07:24.991Z,35.90
2019-04-05T20:08:25.052Z,40.60
2019-04-05T20:09:24.968Z,39.80
2019-04-05T20:10:25.064Z,38.10
2019-04-05T20:11:24.936Z,37.30
2019-04-05T20:12:25.052Z,34.30
2019-04-05T20:13:24.918Z,40.90
2019-04-05T20:14:24.990Z,33.90
2019-04-05T20:15:24.891Z,35.50
2019-04-05T20:16:24.966Z,32.90
2019-04-05T20:17:24.866Z,36.30
2019-04-05T20:18:24.877Z,32.80
2019-04-05T20:19:24.864Z,35.90
2019-04-05T20:20:25.911Z,32.70
2019-04-05T20:21:24.825Z,33.00
2019-04-05T20:22:24.910Z,32.20
2019-04-05T20:23:24.805Z,32.00
2019-04-05T20:24:24.851Z,34.70
2019-04-05T20:25:24.791Z,30.80
2019-04-05T20:26:24.837Z,32.00
2019-04-05T20:27:24.745Z,29.90
2019-04-05T20:28:25.805Z,30.10
2019-04-05T20:29:24.753Z,30.40
2019-04-05T20:30:24.764Z,30.70
2019-04-05T20:31:24.696Z,33.30
2019-04-05T20:32:24.777Z,29.70
2019-04-05T20:33:24.676Z,29.30
2019-04-05T20:34:24.720Z,30.40
2019-04-05T20:35:24.647Z,33.70
2019-04-05T20:36:24.691Z,27.70
2019-04-05T20:37:24.648Z,29.10
2019-04-05T20:38:24.717Z,28.50
2019-04-05T20:39:24.624Z,33.00
2019-04-05T20:40:24.623Z,27.60
2019-04-05T20:41:24.589Z,27.80
2019-04-05T20:42:24.640Z,29.60
2019-04-05T20:43:24.567Z,26.80
2019-04-05T20:44:24.691Z,28.40
2019-04-05T20:45:24.544Z,31.40
2019-04-05T20:46:24.539Z,26.30
2019-04-05T20:47:24.517Z,28.10
2019-04-05T20:48:24.584Z,27.40
2019-04-05T20:49:24.518Z,27.40
2019-04-05T20:50:24.594Z,27.40
2019-04-05T20:51:24.473Z,29.20
2019-04-05T20:52:24.480Z,27.90
2019-04-05T20:53:24.474Z,28.40
2019-04-05T20:54:25.076Z,27.60
2019-04-05T20:55:24.424Z,26.50
2019-04-05T20:56:24.531Z,24.80
2019-04-05T20:57:24.404Z,28.50
2019-04-05T20:58:24.437Z,27.50
2019-04-05T20:59:24.399Z,25.00
2019-04-05T21:00:24.454Z,28.40
2019-04-05T21:01:24.354Z,26.50
2019-04-05T21:02:24.370Z,26.90
2019-04-05T21:03:24.331Z,26.60
2019-04-05T21:04:24.416Z,26.00
2019-04-05T21:05:25.494Z,27.80
2019-04-05T21:06:24.395Z,25.80
2019-04-05T21:07:24.292Z,25.20
2019-04-05T21:08:25.330Z,26.20
2019-04-05T21:09:24.278Z,26.20
2019-04-05T21:10:24.321Z,26.00
2019-04-05T21:11:24.246Z,25.40
2019-04-05T21:12:24.347Z,27.30
2019-04-05T21:13:24.218Z,24.30
2019-04-05T21:14:24.281Z,24.10
2019-04-05T21:15:24.200Z,26.40
2019-04-05T21:16:24.203Z,21.70
2019-04-05T21:17:24.176Z,26.90
2019-04-05T21:18:24.239Z,26.40
2019-04-05T21:19:24.159Z,25.40
2019-04-05T21:20:24.166Z,23.80
2019-04-05T21:21:24.128Z,27.40
2019-04-05T21:22:24.128Z,24.70
2019-04-05T21:23:24.102Z,24.90
2019-04-05T21:24:35.547Z,23.70
2019-04-05T21:25:25.105Z,21.30
2019-04-05T21:26:24.084Z,25.40
2019-04-05T21:27:24.077Z,23.80
2019-04-05T21:28:24.059Z,26.30
2019-04-05T21:29:24.032Z,21.70
2019-04-05T21:30:24.063Z,20.90
2019-04-05T21:31:24.016Z,24.80
2019-04-05T21:32:24.074Z,22.50
2019-04-05T21:33:23.993Z,23.80
2019-04-05T21:34:23.993Z,23.80
2019-04-05T21:35:23.992Z,22.60
2019-04-05T21:36:23.961Z,24.20
2019-04-05T21:37:23.941Z,21.30
2019-04-05T21:38:23.954Z,25.20
2019-04-05T21:39:23.923Z,22.80
2019-04-05T21:40:23.948Z,27.30
2019-04-05T21:41:23.899Z,23.40
2019-04-05T21:42:24.896Z,22.00
2019-04-05T21:43:23.875Z,22.90
2019-04-05T21:44:23.878Z,23.00
2019-04-05T21:45:23.915Z,20.70
2019-04-05T21:46:23.859Z,23.40
2019-04-05T21:47:23.837Z,24.30
2019-04-05T21:48:23.833Z,24.00
2019-04-05T21:49:23.808Z,22.30
2019-04-05T21:50:23.828Z,22.50
2019-04-05T21:51:24.753Z,22.60
2019-04-05T21:52:23.787Z,21.40
2019-04-05T21:53:23.763Z,20.60
2019-04-05T21:54:23.768Z,21.70
2019-04-05T21:55:23.920Z,22.30
2019-04-05T21:56:23.741Z,23.70
2019-04-05T21:57:23.718Z,20.50
2019-04-05T21:58:25.891Z,20.80
2019-04-05T21:59:23.695Z,21.90
2019-04-05T22:00:23.730Z,20.30
2019-04-05T22:01:23.670Z,22.10
2019-04-05T22:02:23.668Z,21.80
2019-04-05T22:03:23.657Z,21.40
2019-04-05T22:04:23.659Z,21.00
2019-04-05T22:05:23.654Z,25.40
2019-04-05T22:06:23.635Z,22.60
2019-04-05T22:07:23.600Z,22.50
2019-04-05T22:08:23.619Z,19.50
2019-04-05T22:09:23.575Z,26.10
2019-04-05T22:10:23.614Z,24.80
2019-04-05T22:11:23.556Z,23.30
2019-04-05T22:12:23.558Z,22.80
2019-04-05T22:13:23.544Z,24.80
2019-04-05T22:14:23.543Z,21.90
2019-04-05T22:15:23.527Z,21.10
2019-04-05T22:16:23.517Z,21.00
2019-04-05T22:17:23.489Z,20.80
2019-04-05T22:18:23.488Z,22.40
2019-04-05T22:19:23.483Z,21.90
2019-04-05T22:20:23.487Z,21.80
2019-04-05T22:21:23.438Z,21.20
2019-04-05T22:22:23.438Z,23.60
2019-04-05T22:23:23.422Z,20.20
2019-04-05T22:24:23.435Z,22.10
2019-04-05T22:25:23.419Z,25.20
2019-04-05T22:26:23.405Z,22.80
2019-04-05T22:27:23.385Z,21.00
2019-04-05T22:28:23.377Z,23.40
2019-04-05T22:29:23.346Z,23.20
2019-04-05T22:30:23.388Z,20.50
2019-04-05T22:31:23.328Z,19.20
2019-04-05T22:32:23.323Z,21.40
2019-04-05T22:33:23.345Z,21.10
2019-04-05T22:34:23.308Z,22.40
2019-04-05T22:35:23.302Z,21.70
2019-04-05T22:36:23.279Z,21.50
2019-04-05T22:37:23.261Z,23.70
2019-04-05T22:38:23.267Z,22.60
2019-04-05T22:39:23.235Z,20.50
2019-04-05T22:40:23.262Z,24.70
2019-04-05T22:41:23.215Z,21.40
2019-04-05T22:42:23.208Z,22.40
2019-04-05T22:43:23.194Z,18.10
2019-04-05T22:44:23.188Z,23.00
2019-04-05T22:45:23.206Z,22.40
2019-04-05T22:46:23.166Z,23.10
2019-04-05T22:47:23.155Z,21.80
2019-04-05T22:48:23.146Z,23.20
2019-04-05T22:49:23.117Z,20.70
2019-04-05T22:50:23.139Z,20.40
2019-04-05T22:51:23.145Z,21.80
2019-04-05T22:52:23.099Z,21.40
2019-04-05T22:53:23.073Z,22.60
2019-04-05T22:54:23.074Z,22.70
2019-04-05T22:55:23.076Z,24.10
2019-04-05T22:56:23.052Z,22.40
2019-04-05T22:57:23.029Z,21.50
2019-04-05T22:58:23.029Z,19.90
2019-04-05T22:59:23.014Z,20.80
2019-04-05T23:00:23.024Z,19.50
2019-04-05T23:01:22.985Z,20.10
2019-04-05T23:02:22.986Z,22.50
2019-04-05T23:03:22.964Z,21.00
2019-04-05T23:04:22.966Z,23.00
2019-04-05T23:05:22.966Z,21.00
2019-04-05T23:06:22.952Z,21.30
2019-04-05T23:07:22.916Z,20.50
2019-04-05T23:08:22.914Z,20.30
2019-04-05T23:09:22.900Z,20.00
2019-04-05T23:10:22.901Z,22.80
2019-04-05T23:11:22.926Z,20.30
2019-04-05T23:12:22.884Z,20.10
2019-04-05T23:13:22.859Z,21.30
2019-04-05T23:14:22.859Z,21.40
2019-04-05T23:15:22.823Z,21.80
2019-04-05T23:16:22.918Z,19.90
2019-04-05T23:17:22.797Z,21.60
2019-04-05T23:18:22.803Z,20.60
2019-04-05T23:19:22.780Z,19.70
2019-04-05T23:20:22.776Z,19.50
2019-04-05T23:21:22.786Z,20.60
2019-04-05T23:22:22.754Z,20.80
2019-04-05T23:23:22.739Z,19.20
2019-04-05T23:24:22.727Z,21.20
2019-04-05T23:25:22.707Z,18.50
2019-04-05T23:26:22.762Z,20.90
2019-04-05T23:27:22.686Z,20.50
2019-04-05T23:28:22.681Z,19.10
2019-04-05T23:29:22.669Z,19.70
2019-04-05T23:30:22.668Z,22.20
2019-04-05T23:31:22.660Z,20.80
2019-04-05T23:32:22.630Z,21.10
2019-04-05T23:33:22.625Z,20.50
2019-04-05T23:34:23.616Z,21.00
2019-04-05T23:35:22.595Z,20.70
2019-04-05T23:36:22.615Z,19.60
2019-04-05T23:37:22.578Z,19.40
2019-04-05T23:38:22.567Z,20.40
2019-04-05T23:39:22.545Z,21.00
2019-04-05T23:40:22.546Z,21.50
2019-04-05T23:41:22.545Z,19.40
2019-04-05T23:42:22.538Z,22.90
2019-04-05T23:43:22.500Z,20.70
2019-04-05T23:44:22.496Z,20.20
2019-04-05T23:45:22.478Z,19.60
2019-04-05T23:46:22.497Z,19.50
2019-04-05T23:47:22.469Z,20.20
2019-04-05T23:48:22.451Z,22.40
2019-04-05T23:49:22.434Z,20.10
2019-04-05T23:50:22.427Z,20.00
2019-04-05T23:51:22.439Z,19.90
2019-04-05T23:52:22.419Z,22.60
2019-04-05T23:53:22.393Z,18.50
2019-04-05T23:54:22.394Z,20.70
2019-04-05T23:55:32.785Z,20.60
2019-04-05T23:56:23.376Z,19.80
2019-04-05T23:57:22.358Z,18.70
2019-04-05T23:58:22.336Z,21.40
2019-04-05T23:59:22.331Z,20.50
